Time;durP1;ratioP1;P1;durP2;ratioP2;P2;SDS_P1;SDS_P2;PMS_P1;PMS_P2;Temp;Humidity;BMP_temperature;BMP_pressure;BME280_temperature;BME280_humidity;BME280_pressure;Samples;Min_cycle;Max_cycle;Signal;HPM_P1;HPM_P2
2023/03/20 00:01:14;;;;;;;5.83;5.33;;;10.20;99.90;;;-141.84;77.37;19663.44;5069387;28;20232;-68
2023/03/20 00:03:43;;;;;;;6.33;5.83;;;10.20;99.90;;;-141.84;77.69;19620.78;5069436;28;20235;-68
2023/03/20 00:06:17;;;;;;;6.47;5.87;;;10.20;99.90;;;-141.84;77.67;19630.94;5069067;28;20801;-69
2023/03/20 00:08:49;;;;;;;5.63;5.00;;;10.10;99.90;;;-141.84;77.62;19618.75;5069347;28;20247;-70
2023/03/20 00:11:31;;;;;;;7.07;6.47;;;10.10;99.90;;;-141.84;77.65;19645.16;5069425;28;20728;-69
2023/03/20 00:14:04;;;;;;;6.43;5.77;;;10.10;99.90;;;-141.84;77.89;19639.06;5073008;28;20216;-68
2023/03/20 00:16:36;;;;;;;7.13;6.53;;;10.10;99.90;;;-141.84;77.63;19675.63;5073012;28;20591;-68
2023/03/20 00:19:07;;;;;;;7.20;6.50;;;10.10;99.90;;;-141.84;77.50;19600.44;5073261;28;20239;-69
2023/03/20 00:21:35;;;;;;;8.27;7.47;;;10.20;99.90;;;-141.84;77.51;19655.31;5072929;28;20224;-68
2023/03/20 00:24:05;;;;;;;7.30;6.60;;;10.10;99.90;;;-141.84;77.60;19606.53;5072855;28;20279;-69
2023/03/20 00:26:37;;;;;;;6.73;5.43;;;10.10;99.90;;;-141.84;77.95;19624.84;5073317;28;20200;-68
2023/03/20 00:29:07;;;;;;;5.17;4.70;;;10.10;99.90;;;-141.84;77.78;19614.66;5075216;28;20185;-68
2023/03/20 00:31:38;;;;;;;5.40;4.90;;;10.10;99.90;;;-141.84;77.95;19628.91;5075924;28;20236;-68
2023/03/20 00:34:12;;;;;;;5.20;4.80;;;10.10;99.90;;;-141.84;78.45;19630.94;5036561;28;20244;-70
2023/03/20 00:36:41;;;;;;;5.70;5.10;;;10.00;99.90;;;-141.84;78.92;19574.03;5054685;28;20221;-70
2023/03/20 00:39:11;;;;;;;5.03;4.53;;;10.00;99.90;;;-141.84;79.21;19578.09;5070256;28;20225;-69
2023/03/20 00:41:47;;;;;;;4.50;4.07;;;9.90;99.90;;;-141.84;79.69;19586.22;5092736;28;20204;-68
2023/03/20 00:44:23;;;;;;;4.90;4.50;;;9.80;99.90;;;-141.84;80.19;19549.63;5093323;28;20648;-68
2023/03/20 00:46:56;;;;;;;5.60;4.20;;;9.70;99.90;;;-141.84;80.48;19555.75;5086394;28;20742;-69
2023/03/20 00:49:28;;;;;;;4.53;4.13;;;9.60;99.90;;;-141.84;80.80;19551.69;5072474;28;20596;-68
2023/03/20 00:51:56;;;;;;;5.13;4.30;;;9.50;99.90;;;-141.84;80.88;19549.63;5072143;28;20265;-69
2023/03/20 00:54:26;;;;;;;4.80;4.40;;;9.40;99.90;;;-141.84;81.40;19553.72;5072245;28;20239;-67
2023/03/20 00:56:59;;;;;;;6.87;5.43;;;9.40;99.90;;;-141.84;81.41;19525.25;5072136;28;20231;-69
2023/03/20 00:59:32;;;;;;;6.73;5.10;;;9.30;99.90;;;-141.84;81.55;19533.38;5072620;28;20185;-69
2023/03/20 01:02:02;;;;;;;6.87;6.27;;;9.30;99.90;;;-141.84;81.49;19527.28;5072819;28;20197;-69
2023/03/20 01:04:37;;;;;;;9.47;8.67;;;9.30;99.90;;;-141.84;81.75;19533.38;5072300;28;20229;-69
2023/03/20 01:07:07;;;;;;;8.73;7.93;;;9.40;99.90;;;-141.84;81.41;19551.69;5071531;28;20688;-69
2023/03/20 01:09:37;;;;;;;9.97;9.07;;;9.40;99.90;;;-141.84;81.27;19555.75;5072081;28;20232;-68
2023/03/20 01:12:07;;;;;;;9.57;8.77;;;9.40;99.90;;;-141.84;81.05;19569.97;5072268;28;20594;-68
2023/03/20 01:14:35;;;;;;;9.00;8.10;;;9.50;99.90;;;-141.84;80.92;19563.88;5072439;28;20201;-68
2023/03/20 01:17:03;;;;;;;7.70;7.00;;;9.50;99.90;;;-141.84;80.30;19561.84;5072389;28;20727;-68
2023/03/20 01:19:31;;;;;;;6.40;5.90;;;9.60;99.90;;;-141.84;80.30;19580.13;5071738;28;20225;-69
2023/03/20 01:22:01;;;;;;;6.90;6.30;;;9.60;99.90;;;-141.84;79.97;19561.84;5071299;28;20708;-68
2023/03/20 01:24:29;;;;;;;6.37;5.87;;;9.70;99.90;;;-141.84;79.93;19608.56;5071534;28;20220;-69
2023/03/20 01:27:02;;;;;;;7.63;6.93;;;9.70;99.90;;;-141.84;79.71;19578.09;5072050;28;20228;-69
2023/03/20 01:29:31;;;;;;;6.90;6.30;;;9.70;99.90;;;-141.84;79.74;19549.63;5072411;28;20211;-68
2023/03/20 01:31:59;;;;;;;6.73;6.13;;;9.70;99.90;;;-141.84;79.83;19586.22;5072593;28;20224;-70
2023/03/20 01:34:28;;;;;;;6.37;5.87;;;9.80;99.90;;;-141.84;79.89;19561.84;5072998;28;20610;-70
2023/03/20 01:36:58;;;;;;;5.77;5.23;;;9.70;99.90;;;-141.84;79.76;19555.75;5071977;28;20240;-69
2023/03/20 01:39:34;;;;;;;5.80;5.30;;;9.80;99.90;;;-141.84;79.80;19572.00;5072090;28;20463;-68
2023/03/20 01:42:06;;;;;;;5.20;4.70;;;9.80;99.90;;;-141.84;79.82;19565.91;5072653;28;20224;-69
2023/03/20 01:44:37;;;;;;;5.67;4.93;;;9.80;99.90;;;-141.84;79.79;19574.03;5072205;28;20212;-68
2023/03/20 01:47:16;;;;;;;5.17;4.67;;;9.80;99.90;;;-141.84;80.08;19567.94;5073040;28;20208;-71
2023/03/20 01:50:22;;;;;;;5.10;4.60;;;9.70;99.90;;;-141.84;80.30;19565.91;5072928;28;20220;-68
2023/03/20 01:52:58;;;;;;;5.13;4.63;;;9.70;99.90;;;-141.84;80.53;19563.88;5072883;28;20644;-69
2023/03/20 01:55:28;;;;;;;6.07;5.47;;;9.70;99.90;;;-141.84;80.68;19549.63;5073246;28;20236;-68
2023/03/20 01:58:03;;;;;;;6.87;5.50;;;9.60;99.90;;;-141.84;80.12;19529.31;5072783;28;20723;-68
2023/03/20 02:00:33;;;;;;;5.00;4.60;;;9.60;99.90;;;-141.84;80.68;19561.84;5073311;28;20220;-69
2023/03/20 02:03:01;;;;;;;5.00;4.50;;;9.60;99.90;;;-141.84;80.64;19537.44;5073093;28;20750;-69
2023/03/20 02:05:31;;;;;;;5.13;4.63;;;9.60;99.90;;;-141.84;81.05;19549.63;5073492;28;20203;-69
2023/03/20 02:08:14;;;;;;;4.90;4.50;;;9.50;99.90;;;-141.84;81.35;19547.59;5073622;28;20254;-69
2023/03/20 02:10:45;;;;;;;6.00;4.50;;;9.50;99.90;;;-141.84;81.67;19496.81;5072378;28;20239;-69
2023/03/20 02:13:16;;;;;;;5.40;4.90;;;9.40;99.90;;;-141.84;81.53;19513.06;5072601;28;20738;-68
2023/03/20 02:16:03;;;;;;;5.67;5.07;;;9.40;99.90;;;-141.84;81.99;19527.28;5072955;28;20224;-68
2023/03/20 02:18:32;;;;;;;4.70;4.23;;;9.30;99.90;;;-141.84;81.96;19506.97;5073162;28;20248;-70
2023/03/20 02:22:13;;;;;;;5.20;4.70;;;9.30;99.90;;;-141.84;82.05;19533.38;5073091;28;20232;-68
2023/03/20 02:25:25;;;;;;;6.10;4.90;;;9.30;99.90;;;-141.84;82.18;19517.13;5052356;28;20785;-69
2023/03/20 02:28:32;;;;;;;5.10;4.70;;;9.30;99.90;;;-141.84;82.06;19537.44;5073113;28;20232;-69
2023/03/20 02:31:27;;;;;;;4.90;4.27;;;9.30;99.90;;;-141.84;81.95;19504.94;5070911;28;20707;-69
2023/03/20 02:34:28;;;;;;;5.93;5.27;;;9.30;99.90;;;-141.84;82.23;19494.78;5070710;28;20231;-68
2023/03/20 02:37:45;;;;;;;5.77;5.17;;;9.30;99.90;;;-141.84;82.26;19545.56;5071906;28;20220;-68
2023/03/20 02:40:30;;;;;;;6.00;5.40;;;9.30;99.90;;;-141.84;82.28;19511.03;5071193;28;20255;-69
2023/03/20 02:43:09;;;;;;;5.27;4.87;;;9.30;99.90;;;-141.84;82.39;19527.28;5071322;28;20598;-69
2023/03/20 02:45:52;;;;;;;5.80;4.83;;;9.30;99.90;;;-141.84;81.94;19488.69;5070713;28;20231;-68
2023/03/20 02:48:37;;;;;;;5.53;5.03;;;9.40;99.90;;;-141.84;81.96;19521.19;5070297;28;20374;-69
2023/03/20 02:51:16;;;;;;;6.10;5.50;;;9.40;99.90;;;-141.84;82.12;19519.16;5050596;28;20256;-69
2023/03/20 02:53:55;;;;;;;5.50;5.00;;;9.40;99.90;;;-141.84;81.75;19545.56;5066289;28;20224;-68
2023/03/20 02:56:35;;;;;;;5.80;5.20;;;9.40;99.90;;;-141.84;81.57;19551.69;5071227;28;20235;-69
2023/03/20 02:59:15;;;;;;;6.00;5.30;;;9.50;99.90;;;-141.84;81.74;19553.72;5072770;28;20197;-67
2023/03/20 03:01:51;;;;;;;6.87;6.17;;;9.50;99.90;;;-141.84;80.82;19574.03;5071535;28;20769;-68
2023/03/20 03:04:27;;;;;;;7.10;5.97;;;9.50;99.90;;;-141.84;80.76;19551.69;5072692;28;20224;-68
2023/03/20 03:06:58;;;;;;;6.30;5.80;;;9.60;99.90;;;-141.84;80.46;19543.53;5072979;28;20228;-68
2023/03/20 03:09:33;;;;;;;7.00;6.40;;;9.60;99.90;;;-141.84;80.97;19561.84;5054135;28;20270;-69
2023/03/20 03:12:10;;;;;;;7.83;7.13;;;9.60;99.90;;;-141.84;80.76;19596.38;5073479;28;20224;-68
2023/03/20 03:14:43;;;;;;;9.50;8.60;;;9.60;99.90;;;-141.84;80.93;19531.34;5071951;28;20188;-67
2023/03/20 03:17:15;;;;;;;8.93;8.13;;;9.60;99.90;;;-141.84;81.16;19539.47;5093103;28;20601;-68
2023/03/20 03:19:50;;;;;;;8.53;7.83;;;9.50;99.90;;;-141.84;81.08;19535.41;5093169;28;20235;-67
2023/03/20 03:22:20;;;;;;;8.00;7.30;;;9.50;99.90;;;-141.84;81.15;19553.72;5063116;28;20228;-68
2023/03/20 03:24:51;;;;;;;7.70;7.03;;;9.50;99.90;;;-141.84;80.88;19553.72;5051601;28;20630;-69
2023/03/20 03:27:24;;;;;;;7.47;6.87;;;9.50;99.90;;;-141.84;80.94;19519.16;5051383;28;20237;-68
2023/03/20 03:29:58;;;;;;;7.40;6.80;;;9.50;99.90;;;-141.84;81.13;19504.94;5050104;28;20225;-69
2023/03/20 03:32:31;;;;;;;7.70;6.90;;;9.50;99.90;;;-141.84;81.17;19502.91;5051782;28;20561;-69
2023/03/20 03:35:02;;;;;;;7.07;6.47;;;9.50;99.90;;;-141.84;81.75;19531.34;5050362;28;20658;-68
2023/03/20 03:37:44;;;;;;;9.03;7.30;;;9.40;99.90;;;-141.84;81.96;19535.41;5031457;28;20230;-68
2023/03/20 03:40:25;;;;;;;6.97;6.37;;;9.40;99.90;;;-141.84;81.75;19519.16;5058162;28;20220;-69
2023/03/20 03:43:03;;;;;;;8.37;7.47;;;9.40;99.90;;;-141.84;80.99;19529.31;5071986;28;20224;-69
2023/03/20 03:45:36;;;;;;;8.20;7.43;;;9.50;99.90;;;-141.84;81.22;19527.28;5072480;28;20231;-68
2023/03/20 03:48:13;;;;;;;8.93;8.13;;;9.50;99.90;;;-141.84;80.81;19567.94;5074405;28;20232;-69
2023/03/20 03:50:47;;;;;;;7.97;7.27;;;9.50;99.90;;;-141.84;80.46;19551.69;5057239;28;20193;-69
2023/03/20 03:53:20;;;;;;;6.90;6.30;;;9.50;99.90;;;-141.84;80.81;19539.47;5055947;28;20200;-69
2023/03/20 03:55:55;;;;;;;6.63;6.03;;;9.50;99.90;;;-141.84;80.68;19537.44;5055909;28;20217;-68
2023/03/20 03:58:30;;;;;;;6.53;5.43;;;9.50;99.90;;;-141.84;80.48;19541.50;5056311;28;20277;-69
2023/03/20 04:01:04;;;;;;;6.60;6.00;;;9.50;99.90;;;-141.84;80.64;19545.56;5056363;28;20225;-68
2023/03/20 04:03:38;;;;;;;7.40;6.70;;;9.50;99.90;;;-141.84;81.10;19525.25;5055715;28;20256;-67
2023/03/20 04:06:12;;;;;;;7.87;7.07;;;9.40;99.90;;;-141.84;80.95;19506.97;5053415;28;20217;-69
2023/03/20 04:08:41;;;;;;;6.87;5.97;;;9.40;99.90;;;-141.84;81.43;19531.34;5054402;28;20210;-69
2023/03/20 04:11:16;;;;;;;7.10;6.30;;;9.40;99.90;;;-141.84;81.59;19525.25;5073862;28;20219;-67
2023/03/20 04:13:47;;;;;;;7.30;6.70;;;9.40;99.90;;;-141.84;81.84;19494.78;5074688;28;20243;-69
2023/03/20 04:16:17;;;;;;;7.63;6.93;;;9.40;99.90;;;-141.84;81.82;19541.50;5074513;28;20614;-68
2023/03/20 04:18:46;;;;;;;8.10;7.30;;;9.40;99.90;;;-141.84;81.59;19517.13;5071785;28;20692;-67
2023/03/20 04:21:15;;;;;;;7.33;6.63;;;9.40;99.90;;;-141.84;81.79;19533.38;5060334;28;20232;-67
2023/03/20 04:23:44;;;;;;;7.77;6.97;;;9.30;99.90;;;-141.84;81.70;19496.81;5072497;28;20729;-68
2023/03/20 04:26:13;;;;;;;8.23;7.43;;;9.30;99.90;;;-141.84;81.37;19527.28;5074524;28;20323;-67
2023/03/20 04:28:41;;;;;;;8.93;8.03;;;9.30;99.90;;;-141.84;81.73;19506.97;5074192;28;20229;-69
2023/03/20 04:31:10;;;;;;;9.33;8.43;;;9.30;99.90;;;-141.84;81.71;19488.69;5072916;28;20224;-69
2023/03/20 04:33:38;;;;;;;8.87;7.60;;;9.30;99.90;;;-141.84;81.59;19468.34;5074198;28;20270;-68
2023/03/20 04:36:08;;;;;;;9.37;7.60;;;9.30;99.90;;;-141.84;81.87;19496.81;5073332;28;20228;-67
2023/03/20 04:38:36;;;;;;;8.90;7.57;;;9.30;99.90;;;-141.84;82.16;19474.44;5073790;28;20231;-68
2023/03/20 04:41:05;;;;;;;8.30;7.50;;;9.30;99.90;;;-141.84;82.55;19500.88;5073217;28;20211;-68
2023/03/20 04:43:35;;;;;;;8.63;7.83;;;9.20;99.90;;;-141.84;82.24;19490.72;5072789;28;20683;-68
2023/03/20 04:46:03;;;;;;;9.37;7.73;;;9.20;99.90;;;-141.84;81.60;19496.81;5073741;28;20225;-68
2023/03/20 04:48:32;;;;;;;8.60;7.80;;;9.30;99.90;;;-141.84;81.54;19513.06;5074539;28;20587;-67
2023/03/20 04:51:00;;;;;;;90.07;72.13;;;9.30;99.90;;;-141.84;80.87;19543.53;5075031;28;20224;-67
2023/03/20 04:53:28;;;;;;;9.30;8.40;;;9.30;99.90;;;-141.84;81.11;19527.28;5074059;28;20227;-68
2023/03/20 04:55:56;;;;;;;8.47;7.67;;;9.40;99.90;;;-141.84;80.81;19474.44;5074715;28;20203;-68
2023/03/20 04:58:26;;;;;;;8.03;7.30;;;9.40;99.90;;;-141.84;80.78;19529.31;5074131;28;20233;-67
2023/03/20 05:00:55;;;;;;;8.63;7.73;;;9.40;99.90;;;-141.84;81.07;19502.91;5073157;28;20233;-68
2023/03/20 05:03:23;;;;;;;8.43;7.63;;;9.40;99.90;;;-141.84;81.11;19504.94;5072102;28;20277;-69
2023/03/20 05:05:51;;;;;;;8.77;7.87;;;9.40;99.90;;;-141.84;80.88;19521.19;5072239;28;20224;-68
2023/03/20 05:08:20;;;;;;;8.77;7.97;;;9.40;99.90;;;-141.84;81.21;19500.88;5072557;28;20220;-68
2023/03/20 05:10:48;;;;;;;9.83;8.90;;;9.40;99.90;;;-141.84;81.45;19517.13;5072098;28;20225;-70
2023/03/20 05:13:16;;;;;;;9.03;8.23;;;9.40;99.90;;;-141.84;81.77;19498.84;5072325;28;20606;-68
2023/03/20 05:15:44;;;;;;;10.20;9.20;;;9.30;99.90;;;-141.84;82.05;19490.72;5071766;28;20221;-69
2023/03/20 05:18:14;;;;;;;10.87;9.60;;;9.30;99.90;;;-141.84;82.19;19474.44;5072204;28;20224;-69
2023/03/20 05:20:42;;;;;;;9.83;8.93;;;9.30;99.90;;;-141.84;81.96;19476.47;5071525;28;20239;-68
2023/03/20 05:23:10;;;;;;;10.50;9.50;;;9.30;99.90;;;-141.84;81.84;19486.66;5072336;28;20653;-67
2023/03/20 05:25:38;;;;;;;10.00;9.10;;;9.30;99.90;;;-141.84;82.13;19484.59;5071886;28;20220;-68
2023/03/20 05:28:06;;;;;;;8.57;7.77;;;9.30;99.90;;;-141.84;82.07;19541.50;5071535;28;20241;-69
2023/03/20 05:30:35;;;;;;;9.23;8.40;;;9.30;99.90;;;-141.84;82.13;19472.41;5071473;28;20228;-68
2023/03/20 05:33:03;;;;;;;9.67;8.77;;;9.30;99.90;;;-141.84;81.91;19476.47;5071620;28;20594;-69
2023/03/20 05:35:33;;;;;;;13.53;12.13;;;9.30;99.90;;;-141.84;81.91;19486.66;5071936;28;20232;-67
2023/03/20 05:38:02;;;;;;;12.40;11.27;;;9.30;99.90;;;-141.84;81.91;19525.25;5071944;28;20188;-68
2023/03/20 05:40:30;;;;;;;13.40;12.20;;;9.30;99.90;;;-141.84;81.12;19502.91;5071337;28;20232;-68
2023/03/20 05:42:58;;;;;;;13.77;12.40;;;9.40;99.90;;;-141.84;81.40;19494.78;5071640;28;20228;-69
2023/03/20 05:45:26;;;;;;;11.70;10.60;;;9.40;99.90;;;-141.84;81.31;19498.84;5071439;28;20231;-68
2023/03/20 05:47:55;;;;;;;11.77;10.77;;;9.50;99.90;;;-141.84;81.44;19511.03;5070779;28;20651;-68
2023/03/20 05:50:23;;;;;;;12.90;11.63;;;9.50;99.90;;;-141.84;81.01;19527.28;5071189;28;20664;-68
2023/03/20 05:52:52;;;;;;;12.07;10.97;;;9.60;99.90;;;-141.84;80.42;19551.69;5071412;28;20189;-67
2023/03/20 05:55:20;;;;;;;9.80;8.90;;;9.60;99.90;;;-141.84;79.05;19588.25;5071243;28;20229;-68
2023/03/20 05:57:48;;;;;;;9.30;8.50;;;9.70;99.90;;;-141.84;78.66;19555.75;5071201;28;20580;-69
2023/03/20 06:00:18;;;;;;;10.90;9.80;;;9.80;99.90;;;-141.84;79.42;19588.25;5071098;28;20247;-68
2023/03/20 06:02:46;;;;;;;11.37;8.97;;;9.80;99.90;;;-141.84;78.74;19565.91;5070592;28;20228;-67
2023/03/20 06:05:15;;;;;;;9.13;8.33;;;9.80;99.90;;;-141.84;78.78;19569.97;5071012;28;20664;-69
2023/03/20 06:07:44;;;;;;;11.20;10.20;;;9.90;99.90;;;-141.84;79.37;19567.94;5070645;28;20232;-68
2023/03/20 06:10:13;;;;;;;9.50;8.47;;;9.90;99.90;;;-141.84;78.46;19610.59;5070285;28;20406;-68
2023/03/20 06:12:41;;;;;;;7.43;6.73;;;9.90;99.90;;;-141.84;77.85;19592.31;5071021;28;20220;-68
2023/03/20 06:15:11;;;;;;;8.80;8.00;;;10.00;99.90;;;-141.84;78.58;19598.41;5070764;28;20236;-68
2023/03/20 06:17:39;;;;;;;8.67;7.43;;;10.00;99.90;;;-141.84;78.99;19576.06;5070944;28;20196;-68
2023/03/20 06:20:09;;;;;;;8.00;7.20;;;10.00;99.90;;;-141.84;79.38;19578.09;5071324;28;20201;-69
2023/03/20 06:22:38;;;;;;;7.50;6.83;;;10.00;99.90;;;-141.84;79.21;19588.25;5070129;28;20517;-69
2023/03/20 06:25:07;;;;;;;7.43;6.77;;;10.00;99.90;;;-141.84;78.75;19606.53;5070512;28;20225;-68
2023/03/20 06:27:37;;;;;;;8.33;7.53;;;10.10;99.90;;;-141.84;77.81;19616.72;5069373;28;20532;-69
2023/03/20 06:30:07;;;;;;;7.90;7.20;;;10.10;99.90;;;-141.84;77.32;19590.28;5069225;28;20240;-68
2023/03/20 06:32:35;;;;;;;7.80;7.00;;;10.10;99.90;;;-141.84;77.30;19598.41;5069408;28;20459;-68
2023/03/20 06:35:04;;;;;;;7.87;6.80;;;10.10;99.90;;;-141.84;77.50;19604.50;5069576;28;20209;-68
2023/03/20 06:37:33;;;;;;;7.87;7.17;;;10.20;99.90;;;-141.84;77.69;19620.78;5070117;28;20307;-68
2023/03/20 06:40:01;;;;;;;8.00;7.23;;;10.20;99.90;;;-141.84;77.62;19616.72;5070466;28;20224;-68
2023/03/20 06:42:29;;;;;;;8.77;7.93;;;10.20;99.90;;;-141.84;77.70;19616.72;5070567;28;20342;-69
2023/03/20 06:44:59;;;;;;;8.70;7.80;;;10.20;99.90;;;-141.84;78.20;19582.16;5070682;28;20231;-68
2023/03/20 06:47:27;;;;;;;9.73;8.73;;;10.20;99.90;;;-141.84;78.80;19590.28;5070779;28;20339;-69
2023/03/20 06:49:55;;;;;;;10.87;9.77;;;10.20;99.90;;;-141.84;78.96;19574.03;5070936;28;20236;-69
2023/03/20 06:52:24;;;;;;;9.20;8.40;;;10.20;99.90;;;-141.84;79.05;19602.47;5069795;28;20700;-69
2023/03/20 06:54:52;;;;;;;8.93;8.03;;;10.20;99.90;;;-141.84;78.86;19569.97;5070430;28;20235;-68
2023/03/20 06:57:20;;;;;;;11.10;10.00;;;10.20;99.90;;;-141.84;78.85;19576.06;5069917;28;20231;-67
2023/03/20 06:59:48;;;;;;;10.63;9.53;;;10.20;99.90;;;-141.84;78.77;19586.22;5070432;28;20228;-68
2023/03/20 07:02:18;;;;;;;9.60;8.60;;;10.20;99.90;;;-141.84;78.57;19590.28;5070663;28;20215;-69
2023/03/20 07:04:46;;;;;;;10.33;8.00;;;10.30;99.90;;;-141.84;78.06;19624.84;5070114;28;20237;-69
2023/03/20 07:07:14;;;;;;;9.13;8.10;;;10.30;99.90;;;-141.84;77.98;19616.72;5069850;28;20232;-69
2023/03/20 07:09:44;;;;;;;9.40;8.20;;;10.30;99.90;;;-141.84;78.11;19635.00;5059837;28;20225;-69
2023/03/20 07:12:15;;;;;;;9.77;8.17;;;10.40;99.90;;;-141.84;77.14;19671.56;5070034;28;20221;-69
2023/03/20 07:14:43;;;;;;;10.20;9.10;;;10.50;99.90;;;-141.84;76.94;19639.06;5070120;28;20681;-68
2023/03/20 07:17:12;;;;;;;11.40;9.77;;;10.60;99.90;;;-141.84;76.21;19671.56;5070602;28;20204;-68
2023/03/20 07:19:42;;;;;;;12.73;10.70;;;10.70;99.90;;;-141.84;75.76;19712.22;5069963;28;20231;-68
2023/03/20 07:22:21;;;;;;;15.47;12.20;;;10.80;99.90;;;-141.84;76.30;19632.97;5069040;28;20243;-68
2023/03/20 07:24:50;;;;;;;17.60;13.30;;;10.80;99.90;;;-141.84;76.52;19687.84;5069916;28;20910;-69
2023/03/20 07:27:18;;;;;;;15.53;12.53;;;10.80;99.90;;;-141.84;76.68;19671.56;5069844;28;20712;-68
2023/03/20 07:29:46;;;;;;;20.77;14.70;;;10.80;99.90;;;-141.84;77.11;19679.72;5070147;28;20228;-69
2023/03/20 07:32:15;;;;;;;21.07;14.43;;;10.80;99.90;;;-141.84;77.18;19679.72;5070408;28;20763;-68
2023/03/20 07:34:46;;;;;;;20.20;15.70;;;10.70;99.90;;;-141.84;77.53;19665.47;5069919;28;20315;-68
2023/03/20 07:37:14;;;;;;;21.90;14.87;;;10.70;99.90;;;-141.84;77.85;19653.28;5069903;28;20228;-69
2023/03/20 07:39:42;;;;;;;19.87;14.53;;;10.70;99.90;;;-141.84;78.11;19618.75;5069789;28;20248;-68
2023/03/20 07:42:12;;;;;;;19.80;14.93;;;10.70;99.90;;;-141.84;78.01;19643.13;5069689;28;20227;-69
2023/03/20 07:44:40;;;;;;;22.13;16.40;;;10.70;99.90;;;-141.84;77.69;19649.22;5069393;28;20196;-68
2023/03/20 07:47:09;;;;;;;24.43;17.03;;;10.80;99.90;;;-141.84;77.40;19663.44;5069857;28;20656;-68
2023/03/20 07:49:37;;;;;;;22.37;16.70;;;10.80;99.90;;;-141.84;77.62;19675.63;5069370;28;20712;-67
2023/03/20 07:52:07;;;;;;;21.87;16.53;;;10.90;99.90;;;-141.84;78.03;19677.66;5069299;28;20232;-69
2023/03/20 07:54:35;;;;;;;21.60;16.73;;;11.00;99.90;;;-141.84;77.94;19695.97;5049516;28;20642;-68
2023/03/20 07:57:04;;;;;;;20.73;16.27;;;11.10;99.90;;;-141.84;77.17;19687.84;5049387;28;20704;-68
2023/03/20 07:59:32;;;;;;;22.37;16.50;;;11.20;99.90;;;-141.84;75.01;19765.06;5049233;28;20208;-68
2023/03/20 08:02:00;;;;;;;23.10;16.80;;;11.30;99.90;;;-141.84;75.77;19763.03;5050285;28;20206;-68
2023/03/20 08:04:29;;;;;;;21.37;15.10;;;11.40;99.90;;;-141.84;75.89;19734.56;5057174;28;20225;-67
2023/03/20 08:06:57;;;;;;;22.93;17.03;;;11.40;99.90;;;-141.84;75.72;19750.84;5068543;28;20312;-68
2023/03/20 08:09:26;;;;;;;24.27;16.90;;;11.50;99.90;;;-141.84;75.04;19754.91;5067689;28;20224;-69
2023/03/20 08:11:55;;;;;;;24.73;18.07;;;11.60;99.90;;;-141.84;74.02;19785.38;5068818;28;20282;-68
2023/03/20 08:14:23;;;;;;;24.57;18.47;;;11.60;99.90;;;-141.84;74.19;19777.25;5068620;28;20205;-67
2023/03/20 08:16:51;;;;;;;26.60;18.73;;;11.70;99.90;;;-141.84;73.36;19824.00;5068598;28;20212;-67
2023/03/20 08:19:39;;;;;;;24.40;18.43;;;11.80;99.90;;;-141.84;73.77;19799.63;5069158;28;20307;-66
2023/03/20 08:22:07;;;;;;;32.10;20.80;;;11.80;99.90;;;-141.84;73.02;19854.50;5068888;28;20232;-67
2023/03/20 08:24:37;;;;;;;29.10;20.67;;;11.90;99.90;;;-141.84;73.40;19848.38;5068798;28;20229;-68
2023/03/20 08:27:06;;;;;;;28.73;21.40;;;11.90;99.90;;;-141.84;73.54;19856.53;5069160;28;20281;-68
2023/03/20 08:29:34;;;;;;;27.73;20.27;;;12.00;99.90;;;-141.84;71.81;19866.69;5069281;28;20231;-67
2023/03/20 08:32:03;;;;;;;27.43;19.97;;;12.20;99.90;;;-141.84;71.15;19923.59;5069405;28;20201;-68
2023/03/20 08:34:32;;;;;;;29.80;21.80;;;12.30;99.90;;;-141.84;70.35;19915.47;5071510;28;20220;-67
2023/03/20 08:37:02;;;;;;;27.95;19.85;;;12.30;99.90;;;-141.84;71.14;19903.25;5072359;28;20224;-68
2023/03/20 08:39:31;;;;;;;27.98;19.88;;;12.40;99.90;;;-141.84;70.96;19933.75;5072649;28;20216;-69
2023/03/20 08:42:01;;;;;;;31.40;22.73;;;12.50;99.90;;;-141.84;68.50;19956.09;5073474;28;20262;-68
2023/03/20 08:44:29;;;;;;;32.28;22.58;;;12.60;99.90;;;-141.84;68.05;19964.25;5072397;28;20203;-66
2023/03/20 08:46:58;;;;;;;31.30;23.00;;;12.70;99.90;;;-141.84;66.85;19994.72;5073339;28;20479;-68
2023/03/20 08:49:26;;;;;;;30.55;22.42;;;12.70;99.90;;;-141.84;68.61;19950.00;5072716;28;20651;-68
2023/03/20 08:51:54;;;;;;;31.08;22.17;;;12.60;99.90;;;-141.84;69.73;19903.25;5072742;28;20286;-68
2023/03/20 08:54:24;;;;;;;34.23;24.07;;;12.50;99.90;;;-141.84;69.82;19899.19;5072656;28;20224;-67
2023/03/20 08:56:52;;;;;;;32.60;23.35;;;12.40;99.90;;;-141.84;70.60;19854.50;5072731;28;20604;-68
2023/03/20 08:59:21;;;;;;;32.83;23.67;;;12.10;99.90;;;-141.84;71.64;19813.84;5072972;28;20216;-67
2023/03/20 09:01:49;;;;;;;33.53;23.35;;;12.00;99.90;;;-141.84;71.77;19834.16;5072523;28;20212;-67
2023/03/20 09:04:18;;;;;;;31.83;22.30;;;12.00;99.90;;;-141.84;71.84;19872.78;5071997;28;20224;-68
2023/03/20 09:06:49;;;;;;;33.57;24.07;;;12.00;99.90;;;-141.84;70.75;19864.66;5072382;28;20229;-68
2023/03/20 09:09:19;;;;;;;32.78;23.58;;;12.00;99.90;;;-141.84;71.00;19889.03;5072312;28;20239;-67
2023/03/20 09:11:47;;;;;;;33.50;22.83;;;12.00;99.90;;;-141.84;71.38;19872.78;5072282;28;20221;-68
2023/03/20 09:14:15;;;;;;;34.57;23.20;;;12.00;99.90;;;-141.84;71.38;19856.53;5072620;28;20224;-68
2023/03/20 09:16:44;;;;;;;33.17;24.03;;;11.90;99.90;;;-141.84;72.09;19793.50;5071895;28;20221;-68
2023/03/20 09:19:13;;;;;;;34.00;22.40;;;11.80;99.90;;;-141.84;72.55;19819.94;5071919;28;20229;-67
2023/03/20 09:21:41;;;;;;;33.30;22.07;;;11.70;99.90;;;-141.84;72.04;19797.59;5071794;28;20629;-67
2023/03/20 09:24:10;;;;;;;33.53;22.33;;;11.70;99.90;;;-141.84;72.36;19805.72;5071678;28;20297;-69
2023/03/20 09:26:38;;;;;;;29.80;20.83;;;11.70;99.90;;;-141.84;72.85;19795.53;5071812;28;20211;-68
2023/03/20 09:29:06;;;;;;;37.80;23.57;;;11.60;99.90;;;-141.84;73.68;19761.00;5072135;28;20884;-68
2023/03/20 09:31:35;;;;;;;34.00;23.30;;;11.50;99.90;;;-141.84;73.62;19748.81;5071564;28;20228;-68
2023/03/20 09:34:05;;;;;;;32.97;22.90;;;11.40;99.90;;;-141.84;74.84;19710.19;5071652;28;20712;-68
2023/03/20 09:36:33;;;;;;;32.70;22.83;;;11.30;99.90;;;-141.84;75.74;19716.28;5071605;28;20230;-68
2023/03/20 09:39:01;;;;;;;32.43;23.53;;;11.20;99.90;;;-141.84;76.03;19724.41;5071693;28;20221;-68
2023/03/20 09:41:35;;;;;;;35.23;22.57;;;11.10;99.90;;;-141.84;75.41;19746.78;5071647;28;20201;-69
2023/03/20 09:44:46;;;;;;;31.20;21.87;;;11.20;99.90;;;-141.84;76.12;19712.22;5071810;28;20192;-67
2023/03/20 09:47:25;;;;;;;32.10;22.13;;;11.10;99.90;;;-141.84;76.75;19714.25;5072036;28;20268;-69
2023/03/20 09:50:12;;;;;;;37.33;24.57;;;11.10;99.90;;;-141.84;76.67;19712.22;5071210;28;20232;-67
2023/03/20 09:52:49;;;;;;;33.43;22.73;;;11.10;99.90;;;-141.84;76.33;19740.69;5070802;28;20269;-67
2023/03/20 09:55:23;;;;;;;36.53;23.30;;;11.10;99.90;;;-141.84;76.36;19720.34;5070959;28;20308;-68
2023/03/20 09:57:57;;;;;;;38.10;23.77;;;11.20;99.90;;;-141.84;75.56;19718.31;5070843;28;20302;-69
2023/03/20 10:00:31;;;;;;;36.60;23.47;;;11.20;99.90;;;-141.84;75.56;19738.66;5071177;28;20315;-67
2023/03/20 10:03:03;;;;;;;33.67;22.87;;;11.30;99.90;;;-141.84;75.45;19718.31;5071545;28;20243;-68
2023/03/20 10:05:39;;;;;;;33.57;22.60;;;11.30;99.90;;;-141.84;74.72;19736.59;5071320;28;20185;-68
2023/03/20 10:08:15;;;;;;;32.13;23.43;;;11.30;99.90;;;-141.84;75.26;19726.44;5071733;28;20184;-68
2023/03/20 10:10:57;;;;;;;34.90;23.13;;;11.30;99.90;;;-141.84;75.52;19720.34;5064439;28;20571;-69
2023/03/20 10:13:58;;;;;;;33.80;24.03;;;11.30;99.90;;;-141.84;75.00;19754.91;5068359;28;20235;-68
2023/03/20 10:16:45;;;;;;;34.37;23.23;;;11.30;99.90;;;-141.84;75.18;19748.81;5070651;28;20598;-67
2023/03/20 10:19:23;;;;;;;34.97;24.10;;;11.30;99.90;;;-141.84;75.10;19728.47;5070967;28;20223;-68
2023/03/20 10:22:02;;;;;;;37.63;23.60;;;11.40;99.90;;;-141.84;75.23;19777.25;5070501;28;20228;-68
2023/03/20 10:24:38;;;;;;;36.73;23.30;;;11.50;99.90;;;-141.84;75.63;19789.44;5070785;28;20236;-68
2023/03/20 10:27:21;;;;;;;34.53;22.25;;;11.50;99.90;;;-141.84;75.19;19761.00;5070619;28;20223;-68